createdAt,value
2023-03-26T00:01:58.577Z,68.34
2023-03-26T00:04:28.343Z,67.96
2023-03-26T00:06:57.447Z,68.37
2023-03-26T00:09:25.962Z,67.65
2023-03-26T00:11:54.367Z,67.78
2023-03-26T00:14:22.900Z,67.94
2023-03-26T00:16:51.264Z,67.92
2023-03-26T00:19:20.104Z,67.73
2023-03-26T00:21:48.890Z,67.79
2023-03-26T00:24:17.669Z,68.25
2023-03-26T00:26:53.558Z,68.18
2023-03-26T00:29:23.189Z,67.84
2023-03-26T00:31:51.722Z,67.78
2023-03-26T00:34:20.932Z,67.79
2023-03-26T00:36:54.541Z,67.91
2023-03-26T00:39:24.257Z,67.78
2023-03-26T00:41:54.758Z,67.51
2023-03-26T00:44:23.592Z,67.50
2023-03-26T00:46:52.160Z,67.42
2023-03-26T00:49:20.445Z,67.43
2023-03-26T00:51:48.627Z,67.31
2023-03-26T00:54:17.738Z,67.31
2023-03-26T00:56:47.004Z,67.16
2023-03-26T00:59:16.032Z,66.96
2023-03-26T01:01:44.993Z,66.84
2023-03-26T01:04:24.522Z,66.60
2023-03-26T01:06:54.443Z,66.60
2023-03-26T01:09:27.068Z,66.62
2023-03-26T01:11:55.763Z,66.84
2023-03-26T01:14:25.471Z,66.44
2023-03-26T01:16:55.346Z,66.27
2023-03-26T01:19:34.164Z,66.23
2023-03-26T01:22:02.915Z,66.03
2023-03-26T01:24:31.497Z,66.82
2023-03-26T01:27:18.703Z,66.51
2023-03-26T01:30:01.963Z,66.33
2023-03-26T01:32:44.226Z,66.49
2023-03-26T01:35:21.444Z,66.33
2023-03-26T01:38:15.693Z,66.14
2023-03-26T01:41:13.040Z,66.33
2023-03-26T01:44:10.691Z,66.72
2023-03-26T01:46:39.952Z,66.55
2023-03-26T01:49:13.524Z,66.53
2023-03-26T01:51:42.874Z,66.18
2023-03-26T01:54:13.329Z,66.08
2023-03-26T01:56:44.502Z,66.13
2023-03-26T01:59:12.553Z,65.80
2023-03-26T02:01:46.284Z,65.73
2023-03-26T02:04:26.683Z,65.83
2023-03-26T02:07:02.220Z,65.85
2023-03-26T02:09:32.769Z,65.91
2023-03-26T02:12:03.908Z,66.15
2023-03-26T02:14:32.634Z,65.93
2023-03-26T02:17:01.020Z,65.88
2023-03-26T02:19:30.227Z,65.86
2023-03-26T02:22:00.147Z,65.82
2023-03-26T02:24:29.456Z,65.86
2023-03-26T02:27:02.443Z,65.88
2023-03-26T02:29:31.229Z,65.73
2023-03-26T02:32:02.424Z,65.69
2023-03-26T02:34:31.286Z,65.58
2023-03-26T02:36:59.548Z,65.53
2023-03-26T02:39:27.933Z,65.68
2023-03-26T02:41:58.713Z,65.78
2023-03-26T02:44:27.666Z,65.84
2023-03-26T02:47:22.269Z,66.06
2023-03-26T02:49:53.504Z,65.92
2023-03-26T02:52:26.592Z,65.96
2023-03-26T02:54:57.335Z,66.28
2023-03-26T02:57:26.747Z,66.11
2023-03-26T03:00:02.701Z,66.24
2023-03-26T03:02:39.019Z,66.37
2023-03-26T03:05:38.348Z,66.78
2023-03-26T03:08:26.657Z,66.88
2023-03-26T03:11:11.346Z,66.74
2023-03-26T03:13:44.858Z,66.72
2023-03-26T03:16:13.890Z,66.46
2023-03-26T03:18:42.432Z,66.46
2023-03-26T03:21:10.520Z,66.64
2023-03-26T03:23:38.641Z,66.85
2023-03-26T03:26:15.735Z,66.72
2023-03-26T03:28:49.998Z,66.60
2023-03-26T03:31:19.260Z,66.68
2023-03-26T03:33:47.694Z,66.80
2023-03-26T03:36:20.566Z,66.70
2023-03-26T03:39:02.929Z,66.69
2023-03-26T03:41:32.194Z,66.70
2023-03-26T03:44:02.298Z,66.56
2023-03-26T03:46:33.509Z,66.58
2023-03-26T03:49:02.550Z,66.55
2023-03-26T03:51:35.340Z,66.60
2023-03-26T03:54:06.173Z,66.52
2023-03-26T03:56:51.482Z,66.51
2023-03-26T03:59:25.762Z,66.81
2023-03-26T04:01:54.043Z,66.84
2023-03-26T04:04:33.036Z,66.97
2023-03-26T04:07:05.170Z,66.98
2023-03-26T04:09:41.813Z,67.21
2023-03-26T04:12:16.463Z,67.29
2023-03-26T04:15:04.673Z,67.52
2023-03-26T04:17:33.626Z,67.54
2023-03-26T04:20:07.077Z,67.53
2023-03-26T04:22:36.795Z,67.71
2023-03-26T04:25:08.040Z,67.73
2023-03-26T04:27:46.369Z,67.65
2023-03-26T04:30:20.790Z,67.64
2023-03-26T04:33:06.727Z,67.47
2023-03-26T04:35:41.895Z,67.32
2023-03-26T04:38:11.528Z,67.50
2023-03-26T04:40:43.479Z,67.52
2023-03-26T04:43:12.777Z,67.77
2023-03-26T04:46:03.063Z,67.83
2023-03-26T04:48:32.989Z,67.62
2023-03-26T04:51:01.879Z,68.07
2023-03-26T04:53:30.471Z,68.16
2023-03-26T04:56:38.262Z,68.18
2023-03-26T04:59:30.284Z,68.45
2023-03-26T05:02:00.345Z,68.38
2023-03-26T05:04:29.940Z,68.52
2023-03-26T05:06:58.808Z,68.66
2023-03-26T05:09:44.371Z,68.42
2023-03-26T05:12:15.221Z,68.70
2023-03-26T05:15:05.276Z,68.81
2023-03-26T05:18:09.261Z,69.49
2023-03-26T05:20:57.606Z,69.69
2023-03-26T05:23:27.134Z,69.82
2023-03-26T05:26:07.780Z,69.83
2023-03-26T05:28:37.144Z,69.91
2023-03-26T05:31:18.596Z,69.88
2023-03-26T05:33:48.768Z,69.77
2023-03-26T05:36:17.443Z,69.61
2023-03-26T05:38:52.500Z,69.21
2023-03-26T05:41:39.272Z,68.75
2023-03-26T05:44:07.636Z,68.56
2023-03-26T05:46:36.180Z,67.91
2023-03-26T05:49:04.812Z,67.34
2023-03-26T05:51:35.441Z,66.91
2023-03-26T05:54:22.448Z,66.56
2023-03-26T05:57:09.461Z,66.04
2023-03-26T05:59:56.719Z,65.56
2023-03-26T06:02:43.604Z,65.37
2023-03-26T06:05:34.580Z,65.48
2023-03-26T06:08:11.459Z,65.53
2023-03-26T06:10:40.772Z,65.70
2023-03-26T06:13:09.557Z,66.02
2023-03-26T06:15:40.917Z,66.40
2023-03-26T06:18:27.047Z,66.58
2023-03-26T06:21:34.165Z,66.96
2023-03-26T06:24:10.539Z,67.03
2023-03-26T06:26:38.612Z,67.37
2023-03-26T06:29:43.116Z,67.92
2023-03-26T06:32:20.596Z,68.73
2023-03-26T06:34:55.340Z,68.86
2023-03-26T06:37:23.827Z,69.01
2023-03-26T06:39:57.974Z,68.88
2023-03-26T06:43:07.707Z,69.10
2023-03-26T06:45:55.813Z,69.44
2023-03-26T06:48:33.500Z,69.14
2023-03-26T06:51:13.777Z,69.16
2023-03-26T06:54:20.718Z,69.87
2023-03-26T06:57:05.359Z,70.31
2023-03-26T06:59:52.392Z,70.76
2023-03-26T07:02:39.626Z,71.19
2023-03-26T07:05:43.307Z,71.31
2023-03-26T07:08:31.832Z,71.51
2023-03-26T07:11:39.002Z,71.33
2023-03-26T07:14:16.608Z,71.36
2023-03-26T07:16:55.524Z,71.23
2023-03-26T07:19:47.347Z,71.25
2023-03-26T07:22:23.640Z,70.87
2023-03-26T07:25:14.127Z,70.51
2023-03-26T07:28:13.396Z,70.33
2023-03-26T07:31:07.677Z,69.60
2023-03-26T07:34:04.217Z,69.39
2023-03-26T07:36:47.511Z,69.18
2023-03-26T07:39:55.981Z,68.92
2023-03-26T07:42:51.922Z,68.94
2023-03-26T07:45:46.434Z,68.12
2023-03-26T07:48:48.144Z,67.38
2023-03-26T07:51:37.092Z,67.26
2023-03-26T07:54:17.773Z,67.24
2023-03-26T07:57:08.833Z,66.87
2023-03-26T08:00:01.959Z,66.10
2023-03-26T08:03:07.291Z,65.00
2023-03-26T08:06:09.513Z,64.54
2023-03-26T08:08:54.154Z,64.70
2023-03-26T08:11:57.634Z,64.33
2023-03-26T08:14:44.847Z,63.21
2023-03-26T08:17:22.229Z,63.34
2023-03-26T08:19:50.517Z,63.34
2023-03-26T08:22:34.461Z,63.44
2023-03-26T08:25:02.526Z,63.49
2023-03-26T08:27:31.118Z,62.67
2023-03-26T08:30:19.378Z,61.94
2023-03-26T08:32:56.527Z,61.74
2023-03-26T08:35:26.107Z,60.97
2023-03-26T08:37:54.750Z,59.66
2023-03-26T08:40:38.992Z,58.27
2023-03-26T08:43:17.192Z,58.59
2023-03-26T08:46:02.525Z,58.81
2023-03-26T08:48:42.720Z,56.14
2023-03-26T08:51:18.590Z,55.58
2023-03-26T08:54:03.745Z,55.56
2023-03-26T08:56:40.353Z,54.94
2023-03-26T08:59:19.250Z,55.20
2023-03-26T09:02:02.624Z,54.36
2023-03-26T09:04:49.443Z,53.79
2023-03-26T09:07:32.490Z,52.13
2023-03-26T09:10:19.904Z,49.83
2023-03-26T09:12:51.488Z,50.08
2023-03-26T09:15:38.993Z,51.31
2023-03-26T09:18:07.613Z,50.70
2023-03-26T09:20:54.932Z,50.34
2023-03-26T09:23:43.126Z,50.08
2023-03-26T09:26:11.417Z,49.86
2023-03-26T09:28:41.140Z,49.32
2023-03-26T09:31:12.079Z,48.92
2023-03-26T09:34:00.414Z,49.17
2023-03-26T09:37:02.763Z,49.15
2023-03-26T09:39:57.190Z,48.02
2023-03-26T09:42:43.434Z,47.71
2023-03-26T09:45:18.073Z,48.01
2023-03-26T09:47:59.140Z,47.11
2023-03-26T09:50:35.796Z,46.06
2023-03-26T09:53:13.201Z,45.48
2023-03-26T09:55:57.521Z,45.09
2023-03-26T09:58:25.932Z,46.03
2023-03-26T10:01:06.005Z,45.95
2023-03-26T10:03:38.708Z,45.92
2023-03-26T10:06:22.906Z,45.76
2023-03-26T10:08:50.996Z,45.26
2023-03-26T10:11:38.410Z,44.50
2023-03-26T10:14:17.945Z,44.53
2023-03-26T10:17:05.340Z,44.24
2023-03-26T10:19:49.201Z,43.57
2023-03-26T10:22:20.967Z,41.08
2023-03-26T10:25:08.477Z,39.52
2023-03-26T10:27:42.794Z,39.66
2023-03-26T10:30:17.016Z,40.61
2023-03-26T10:32:54.412Z,40.91
2023-03-26T10:35:23.025Z,38.44
2023-03-26T10:38:10.509Z,38.76
2023-03-26T10:40:51.794Z,39.27
2023-03-26T10:43:26.413Z,40.73
2023-03-26T10:46:13.857Z,41.29
2023-03-26T10:48:51.527Z,41.60
2023-03-26T10:51:36.814Z,41.99
2023-03-26T10:54:30.668Z,42.10
2023-03-26T10:57:01.175Z,40.70
2023-03-26T10:59:30.806Z,40.45
2023-03-26T11:02:18.431Z,41.13
2023-03-26T11:04:46.717Z,41.25
2023-03-26T11:07:32.914Z,40.21
2023-03-26T11:10:26.163Z,40.46
2023-03-26T11:14:03.051Z,40.39
2023-03-26T11:16:54.950Z,37.52
2023-03-26T11:19:31.913Z,37.08
2023-03-26T11:22:15.985Z,35.43
2023-03-26T11:24:54.678Z,33.90
2023-03-26T11:27:42.291Z,34.33
2023-03-26T11:30:29.618Z,35.26
2023-03-26T11:33:00.579Z,35.97
2023-03-26T11:35:41.818Z,35.69
2023-03-26T11:38:22.188Z,33.83
2023-03-26T11:40:55.937Z,33.12
2023-03-26T11:43:50.576Z,32.70
2023-03-26T11:46:21.463Z,32.39
2023-03-26T11:48:58.261Z,31.08
2023-03-26T11:51:26.782Z,30.98
2023-03-26T11:53:55.273Z,31.86
2023-03-26T11:56:23.660Z,32.39
2023-03-26T11:58:54.704Z,32.82
2023-03-26T12:01:32.348Z,32.84
2023-03-26T12:04:07.242Z,33.47
2023-03-26T12:06:36.411Z,32.92
2023-03-26T12:09:04.909Z,33.23
2023-03-26T12:11:35.543Z,32.38
2023-03-26T12:14:05.866Z,32.97
2023-03-26T12:16:34.687Z,32.86
2023-03-26T12:19:06.332Z,33.11
2023-03-26T12:21:45.144Z,33.03
2023-03-26T12:24:33.800Z,32.15
2023-03-26T12:27:20.696Z,32.70
2023-03-26T12:29:52.765Z,33.67
2023-03-26T12:32:22.552Z,33.52
2023-03-26T12:34:53.698Z,33.44
2023-03-26T12:37:35.928Z,33.86
2023-03-26T12:40:15.161Z,34.05
2023-03-26T12:44:49.265Z,33.93
2023-03-26T12:45:42.489Z,34.34
2023-03-26T12:48:13.239Z,34.34
2023-03-26T12:51:00.460Z,34.67
2023-03-26T12:53:34.604Z,34.59
2023-03-26T12:56:13.522Z,34.11
2023-03-26T12:58:44.358Z,34.73
2023-03-26T13:01:28.119Z,34.75
2023-03-26T13:03:56.893Z,34.66
2023-03-26T13:06:25.073Z,36.76
2023-03-26T13:08:53.453Z,40.76
2023-03-26T13:11:36.785Z,43.40
2023-03-26T13:14:15.985Z,46.14
2023-03-26T13:17:07.473Z,49.20
2023-03-26T13:19:48.500Z,50.62
2023-03-26T13:22:31.928Z,52.80
2023-03-26T13:25:07.732Z,54.32
2023-03-26T13:27:36.058Z,56.22
2023-03-26T13:30:04.143Z,56.54
2023-03-26T13:32:50.870Z,57.98
2023-03-26T13:35:29.995Z,58.02
2023-03-26T13:38:11.860Z,58.57
2023-03-26T13:40:42.804Z,57.57
2023-03-26T13:43:10.868Z,55.95
2023-03-26T13:45:51.987Z,53.00
2023-03-26T13:48:24.428Z,51.87
2023-03-26T13:51:11.437Z,51.56
2023-03-26T13:53:59.269Z,51.67
2023-03-26T13:56:38.805Z,50.58
2023-03-26T13:59:16.399Z,48.66
2023-03-26T14:01:51.276Z,48.25
2023-03-26T14:04:32.671Z,47.77
2023-03-26T14:07:23.901Z,45.98
2023-03-26T14:09:54.762Z,43.60
2023-03-26T14:12:38.602Z,42.41
2023-03-26T14:15:11.363Z,41.47
2023-03-26T14:17:47.692Z,42.08
2023-03-26T14:20:20.115Z,41.43
2023-03-26T14:23:06.923Z,40.82
2023-03-26T14:25:47.288Z,39.64
2023-03-26T14:28:21.740Z,37.00
2023-03-26T14:30:56.687Z,37.07
2023-03-26T14:33:28.213Z,38.16
2023-03-26T14:36:00.951Z,38.98
2023-03-26T14:38:59.451Z,39.14
2023-03-26T14:41:48.011Z,38.01
2023-03-26T14:44:48.193Z,34.19
2023-03-26T14:47:19.675Z,31.81
2023-03-26T14:50:04.332Z,32.47
2023-03-26T14:52:41.602Z,33.25
2023-03-26T14:55:22.569Z,33.52
2023-03-26T14:58:13.980Z,34.07
2023-03-26T15:01:17.714Z,34.50
2023-03-26T15:03:52.203Z,34.68
2023-03-26T15:06:23.239Z,33.78
2023-03-26T15:09:09.875Z,32.53
2023-03-26T15:12:13.226Z,29.30
2023-03-26T15:14:42.422Z,28.89
2023-03-26T15:17:29.382Z,28.13
2023-03-26T15:20:16.679Z,27.37
2023-03-26T15:22:48.812Z,25.50
2023-03-26T15:25:19.960Z,25.20
2023-03-26T15:27:54.279Z,23.96
2023-03-26T15:30:35.072Z,23.15
2023-03-26T15:33:30.037Z,22.89
2023-03-26T15:36:11.315Z,22.54
2023-03-26T15:38:57.797Z,23.72
2023-03-26T15:41:35.033Z,25.12
2023-03-26T15:44:26.722Z,26.86
2023-03-26T15:46:55.525Z,28.57
2023-03-26T15:49:44.150Z,29.64
2023-03-26T15:52:28.481Z,30.44
2023-03-26T15:55:04.170Z,30.92
2023-03-26T15:57:58.077Z,31.51
2023-03-26T16:00:29.279Z,32.17
2023-03-26T16:03:10.349Z,32.96
2023-03-26T16:05:52.617Z,33.04
2023-03-26T16:08:26.651Z,33.49
2023-03-26T16:10:59.129Z,34.73
2023-03-26T16:13:31.612Z,36.05
2023-03-26T16:16:02.886Z,36.86
2023-03-26T16:18:31.582Z,37.18
2023-03-26T16:21:32.011Z,38.11
2023-03-26T16:24:03.748Z,38.53
2023-03-26T16:26:31.906Z,39.17
2023-03-26T16:29:14.484Z,39.13
2023-03-26T16:32:01.765Z,39.48
2023-03-26T16:34:50.782Z,39.16
2023-03-26T16:37:32.344Z,39.07
2023-03-26T16:40:20.934Z,39.82
2023-03-26T16:43:07.837Z,41.66
2023-03-26T16:45:55.140Z,42.71
2023-03-26T16:48:23.418Z,43.75
2023-03-26T16:50:56.927Z,44.61
2023-03-26T16:53:36.228Z,44.99
2023-03-26T16:56:28.121Z,45.95
2023-03-26T16:59:00.536Z,47.10
2023-03-26T17:01:28.651Z,47.04
2023-03-26T17:03:57.248Z,46.91
2023-03-26T17:06:46.107Z,47.15
2023-03-26T17:09:23.672Z,47.59
2023-03-26T17:12:06.892Z,48.36
2023-03-26T17:14:54.504Z,49.09
2023-03-26T17:17:22.815Z,50.13
2023-03-26T17:19:50.963Z,49.80
2023-03-26T17:22:55.407Z,49.94
2023-03-26T17:25:31.222Z,50.07
2023-03-26T17:28:29.182Z,50.03
2023-03-26T17:31:12.545Z,50.87
2023-03-26T17:33:41.108Z,51.43
2023-03-26T17:36:11.980Z,50.84
2023-03-26T17:38:40.533Z,50.71
2023-03-26T17:41:17.664Z,50.79
2023-03-26T17:43:52.856Z,51.27
2023-03-26T17:46:37.825Z,51.13
2023-03-26T17:49:12.481Z,51.40
2023-03-26T17:51:40.730Z,51.98
2023-03-26T17:54:41.349Z,52.02
2023-03-26T17:57:29.578Z,52.11
2023-03-26T17:59:59.148Z,52.49
2023-03-26T18:02:37.142Z,52.54
2023-03-26T18:05:08.811Z,53.05
2023-03-26T18:07:49.525Z,53.12
2023-03-26T18:10:20.976Z,53.71
2023-03-26T18:12:50.802Z,54.19
2023-03-26T18:15:26.456Z,54.30
2023-03-26T18:18:13.347Z,54.75
2023-03-26T18:20:44.085Z,54.99
2023-03-26T18:23:20.350Z,54.78
2023-03-26T18:25:58.199Z,55.43
2023-03-26T18:28:31.101Z,55.19
2023-03-26T18:31:08.533Z,55.65
2023-03-26T18:33:44.187Z,55.88
2023-03-26T18:36:13.886Z,55.81
2023-03-26T18:38:43.366Z,56.32
2023-03-26T18:41:30.918Z,55.83
2023-03-26T18:44:04.332Z,55.75
2023-03-26T18:46:33.540Z,56.32
2023-03-26T18:49:03.175Z,56.81
2023-03-26T18:51:32.028Z,57.15
2023-03-26T18:54:02.966Z,57.27
2023-03-26T18:56:31.452Z,57.27
2023-03-26T18:59:00.773Z,57.61
2023-03-26T19:01:33.483Z,57.62
2023-03-26T19:04:05.346Z,57.69
2023-03-26T19:06:35.935Z,57.74
2023-03-26T19:09:23.897Z,57.64
2023-03-26T19:12:08.387Z,58.11
2023-03-26T19:14:51.356Z,57.91
2023-03-26T19:17:19.834Z,57.90
2023-03-26T19:19:49.541Z,58.15
2023-03-26T19:22:20.188Z,58.11
2023-03-26T19:24:50.510Z,58.53
2023-03-26T19:27:19.509Z,58.56
2023-03-26T19:29:47.889Z,58.53
2023-03-26T19:32:18.030Z,58.74
2023-03-26T19:34:47.427Z,58.78
2023-03-26T19:37:21.560Z,58.74
2023-03-26T19:39:51.562Z,58.77
2023-03-26T19:42:43.869Z,59.17
2023-03-26T19:45:20.668Z,59.13
2023-03-26T19:47:57.306Z,59.51
2023-03-26T19:50:37.083Z,59.38
2023-03-26T19:53:15.480Z,59.17
2023-03-26T19:55:55.969Z,59.80
2023-03-26T19:58:26.091Z,59.60
2023-03-26T20:00:56.552Z,59.61
2023-03-26T20:03:29.913Z,59.93
2023-03-26T20:05:58.300Z,60.45
2023-03-26T20:08:29.380Z,60.18
2023-03-26T20:10:58.669Z,60.35
2023-03-26T20:13:27.645Z,60.24
2023-03-26T20:16:10.911Z,60.80
2023-03-26T20:18:39.368Z,61.23
2023-03-26T20:21:13.779Z,61.07
2023-03-26T20:23:43.284Z,61.08
2023-03-26T20:26:15.462Z,61.14
2023-03-26T20:28:48.046Z,60.97
2023-03-26T20:31:25.499Z,61.19
2023-03-26T20:33:54.353Z,61.32
2023-03-26T20:36:33.591Z,61.66
2023-03-26T20:39:06.185Z,61.73
2023-03-26T20:41:35.539Z,62.26
2023-03-26T20:44:06.278Z,61.94
2023-03-26T20:46:34.893Z,61.72
2023-03-26T20:49:03.465Z,61.63
2023-03-26T20:51:32.036Z,61.86
2023-03-26T20:54:00.838Z,62.09
2023-03-26T20:56:29.113Z,61.97
2023-03-26T21:01:29.462Z,61.91
2023-03-26T21:03:57.655Z,61.83
2023-03-26T21:06:25.822Z,61.84
2023-03-26T21:08:54.207Z,61.90
2023-03-26T21:11:26.365Z,62.05
2023-03-26T21:14:00.110Z,62.30
2023-03-26T21:16:28.631Z,62.54
2023-03-26T21:18:57.844Z,62.57
2023-03-26T21:21:26.152Z,62.62
2023-03-26T21:24:10.607Z,62.63
2023-03-26T21:26:45.411Z,62.72
2023-03-26T21:29:13.929Z,63.11
2023-03-26T21:31:42.519Z,63.27
2023-03-26T21:34:13.400Z,63.24
2023-03-26T21:36:42.213Z,63.01
2023-03-26T21:39:11.247Z,62.69
2023-03-26T21:41:43.791Z,63.06
2023-03-26T21:44:14.340Z,63.13
2023-03-26T21:46:43.824Z,63.15
2023-03-26T21:49:13.428Z,63.24
2023-03-26T21:51:42.937Z,63.52
2023-03-26T21:54:25.004Z,63.58
2023-03-26T21:57:02.947Z,63.70
2023-03-26T21:59:51.978Z,63.95
2023-03-26T22:02:29.358Z,64.05
2023-03-26T22:05:00.894Z,64.13
2023-03-26T22:07:48.104Z,64.20
2023-03-26T22:10:16.608Z,64.74
2023-03-26T22:12:44.876Z,64.47
2023-03-26T22:15:14.085Z,64.28
2023-03-26T22:17:43.123Z,64.53
2023-03-26T22:20:12.817Z,64.46
2023-03-26T22:22:48.948Z,64.55
2023-03-26T22:25:18.368Z,64.65
2023-03-26T22:27:47.423Z,64.62
2023-03-26T22:30:15.865Z,64.72
2023-03-26T22:32:44.916Z,64.51
2023-03-26T22:35:13.332Z,64.95
2023-03-26T22:37:41.925Z,65.00
2023-03-26T22:40:13.068Z,65.17
2023-03-26T22:42:41.496Z,64.99
2023-03-26T22:45:10.354Z,64.86
2023-03-26T22:47:38.974Z,64.97
2023-03-26T22:50:08.526Z,65.43
2023-03-26T22:52:37.033Z,64.76
2023-03-26T22:55:05.739Z,64.74
2023-03-26T22:57:33.912Z,64.75
2023-03-26T23:00:14.059Z,64.97
2023-03-26T23:02:45.076Z,65.10
2023-03-26T23:05:14.409Z,65.14
2023-03-26T23:07:43.712Z,65.00
2023-03-26T23:10:12.406Z,65.32
2023-03-26T23:12:41.918Z,65.05
2023-03-26T23:15:11.230Z,65.14
2023-03-26T23:17:39.818Z,65.40
2023-03-26T23:20:15.557Z,65.38
2023-03-26T23:22:44.375Z,64.99
2023-03-26T23:25:12.532Z,65.22
2023-03-26T23:27:41.566Z,65.16
2023-03-26T23:30:11.110Z,65.42
2023-03-26T23:32:39.353Z,65.49
2023-03-26T23:35:08.077Z,65.31
2023-03-26T23:37:36.298Z,65.18
2023-03-26T23:40:10.356Z,65.55
2023-03-26T23:42:38.707Z,65.33
2023-03-26T23:45:08.681Z,65.21
2023-03-26T23:47:37.526Z,65.53
2023-03-26T23:50:06.399Z,65.81
2023-03-26T23:52:34.584Z,65.99
2023-03-26T23:55:03.141Z,65.86
2023-03-26T23:57:31.765Z,66.01
2023-03-26T23:59:59.808Z,66.06
